sensor_id;sensor_type;location;lat;lon;timestamp;P1;durP1;ratioP1;P2;durP2;ratioP2
53927;SDS011;39837;47.630;18.822;2023-06-24T00:02:05;2.65;;;2.50;;
53927;SDS011;39837;47.630;18.822;2023-06-24T00:04:49;3.70;;;3.40;;
53927;SDS011;39837;47.630;18.822;2023-06-24T00:07:35;2.55;;;2.35;;
53927;SDS011;39837;47.630;18.822;2023-06-24T00:10:27;3.28;;;3.05;;
53927;SDS011;39837;47.630;18.822;2023-06-24T00:13:12;6.43;;;3.53;;
53927;SDS011;39837;47.630;18.822;2023-06-24T00:15:57;2.90;;;2.70;;
53927;SDS011;39837;47.630;18.822;2023-06-24T00:18:40;7.72;;;2.97;;
53927;SDS011;39837;47.630;18.822;2023-06-24T00:21:25;3.63;;;3.33;;
53927;SDS011;39837;47.630;18.822;2023-06-24T00:24:16;5.57;;;3.72;;
53927;SDS011;39837;47.630;18.822;2023-06-24T00:27:02;3.40;;;3.20;;
53927;SDS011;39837;47.630;18.822;2023-06-24T00:29:47;3.30;;;2.88;;
53927;SDS011;39837;47.630;18.822;2023-06-24T00:32:31;9.85;;;3.67;;
53927;SDS011;39837;47.630;18.822;2023-06-24T00:35:14;3.35;;;3.15;;
53927;SDS011;39837;47.630;18.822;2023-06-24T00:37:59;4.15;;;3.85;;
53927;SDS011;39837;47.630;18.822;2023-06-24T00:40:43;2.83;;;2.72;;
53927;SDS011;39837;47.630;18.822;2023-06-24T00:43:27;3.47;;;3.28;;
53927;SDS011;39837;47.630;18.822;2023-06-24T00:46:11;3.17;;;2.90;;
53927;SDS011;39837;47.630;18.822;2023-06-24T00:48:57;6.95;;;3.08;;
53927;SDS011;39837;47.630;18.822;2023-06-24T00:51:42;3.25;;;2.95;;
53927;SDS011;39837;47.630;18.822;2023-06-24T00:54:31;4.72;;;3.67;;
53927;SDS011;39837;47.630;18.822;2023-06-24T00:57:15;7.88;;;3.13;;
53927;SDS011;39837;47.630;18.822;2023-06-24T01:02:48;3.40;;;3.10;;
53927;SDS011;39837;47.630;18.822;2023-06-24T01:05:34;4.82;;;4.13;;
53927;SDS011;39837;47.630;18.822;2023-06-24T01:08:19;4.13;;;3.83;;
53927;SDS011;39837;47.630;18.822;2023-06-24T01:11:06;3.42;;;3.00;;
53927;SDS011;39837;47.630;18.822;2023-06-24T01:13:50;3.15;;;2.85;;
53927;SDS011;39837;47.630;18.822;2023-06-24T01:20:02;6.43;;;4.35;;
53927;SDS011;39837;47.630;18.822;2023-06-24T01:31:57;4.13;;;3.75;;
53927;SDS011;39837;47.630;18.822;2023-06-24T01:34:48;3.85;;;3.33;;
53927;SDS011;39837;47.630;18.822;2023-06-24T01:37:52;4.03;;;3.50;;
53927;SDS011;39837;47.630;18.822;2023-06-24T01:40:40;4.80;;;3.85;;
53927;SDS011;39837;47.630;18.822;2023-06-24T01:43:27;3.00;;;2.80;;
53927;SDS011;39837;47.630;18.822;2023-06-24T01:46:11;3.35;;;3.10;;
53927;SDS011;39837;47.630;18.822;2023-06-24T01:48:58;4.93;;;3.50;;
53927;SDS011;39837;47.630;18.822;2023-06-24T01:51:43;3.83;;;3.38;;
53927;SDS011;39837;47.630;18.822;2023-06-24T01:54:28;2.97;;;2.78;;
53927;SDS011;39837;47.630;18.822;2023-06-24T01:57:14;3.80;;;3.50;;
53927;SDS011;39837;47.630;18.822;2023-06-24T01:59:59;3.05;;;2.90;;
53927;SDS011;39837;47.630;18.822;2023-06-24T02:02:43;3.50;;;3.17;;
53927;SDS011;39837;47.630;18.822;2023-06-24T02:05:28;3.42;;;3.13;;
53927;SDS011;39837;47.630;18.822;2023-06-24T02:08:15;4.35;;;2.63;;
53927;SDS011;39837;47.630;18.822;2023-06-24T02:11:00;2.90;;;2.75;;
53927;SDS011;39837;47.630;18.822;2023-06-24T02:13:45;5.33;;;3.13;;
53927;SDS011;39837;47.630;18.822;2023-06-24T02:16:29;11.57;;;3.30;;
53927;SDS011;39837;47.630;18.822;2023-06-24T02:19:13;3.58;;;3.28;;
53927;SDS011;39837;47.630;18.822;2023-06-24T02:22:01;3.17;;;2.85;;
53927;SDS011;39837;47.630;18.822;2023-06-24T02:24:45;5.45;;;3.92;;
53927;SDS011;39837;47.630;18.822;2023-06-24T02:27:31;8.70;;;3.67;;
53927;SDS011;39837;47.630;18.822;2023-06-24T02:30:16;3.60;;;3.30;;
53927;SDS011;39837;47.630;18.822;2023-06-24T02:33:00;3.92;;;3.63;;
53927;SDS011;39837;47.630;18.822;2023-06-24T02:35:44;3.55;;;3.25;;
53927;SDS011;39837;47.630;18.822;2023-06-24T02:38:30;10.38;;;3.25;;
53927;SDS011;39837;47.630;18.822;2023-06-24T02:41:13;2.85;;;2.65;;
53927;SDS011;39837;47.630;18.822;2023-06-24T02:43:57;3.58;;;2.95;;
53927;SDS011;39837;47.630;18.822;2023-06-24T02:46:45;8.10;;;3.72;;
53927;SDS011;39837;47.630;18.822;2023-06-24T02:49:30;2.78;;;2.58;;
53927;SDS011;39837;47.630;18.822;2023-06-24T02:52:14;3.65;;;3.35;;
53927;SDS011;39837;47.630;18.822;2023-06-24T02:54:59;2.63;;;2.47;;
53927;SDS011;39837;47.630;18.822;2023-06-24T02:57:42;2.47;;;2.38;;
53927;SDS011;39837;47.630;18.822;2023-06-24T03:00:28;3.90;;;3.53;;
53927;SDS011;39837;47.630;18.822;2023-06-24T03:03:17;2.67;;;2.47;;
53927;SDS011;39837;47.630;18.822;2023-06-24T03:06:01;13.63;;;3.63;;
53927;SDS011;39837;47.630;18.822;2023-06-24T03:08:46;5.18;;;3.03;;
53927;SDS011;39837;47.630;18.822;2023-06-24T03:11:31;2.97;;;2.15;;
53927;SDS011;39837;47.630;18.822;2023-06-24T03:14:23;3.53;;;3.05;;
53927;SDS011;39837;47.630;18.822;2023-06-24T03:17:07;2.85;;;2.65;;
53927;SDS011;39837;47.630;18.822;2023-06-24T03:19:52;2.58;;;2.38;;
53927;SDS011;39837;47.630;18.822;2023-06-24T03:22:35;1.80;;;1.80;;
53927;SDS011;39837;47.630;18.822;2023-06-24T03:25:20;2.08;;;1.98;;
53927;SDS011;39837;47.630;18.822;2023-06-24T03:28:04;2.33;;;2.22;;
53927;SDS011;39837;47.630;18.822;2023-06-24T03:30:51;2.40;;;2.20;;
53927;SDS011;39837;47.630;18.822;2023-06-24T03:33:35;9.55;;;1.95;;
53927;SDS011;39837;47.630;18.822;2023-06-24T03:36:19;2.40;;;2.30;;
53927;SDS011;39837;47.630;18.822;2023-06-24T03:39:04;2.08;;;1.98;;
53927;SDS011;39837;47.630;18.822;2023-06-24T03:41:48;1.80;;;1.70;;
53927;SDS011;39837;47.630;18.822;2023-06-24T03:44:32;1.95;;;1.92;;
53927;SDS011;39837;47.630;18.822;2023-06-24T03:47:16;4.80;;;2.38;;
53927;SDS011;39837;47.630;18.822;2023-06-24T03:50:00;2.33;;;2.22;;
53927;SDS011;39837;47.630;18.822;2023-06-24T03:52:45;2.13;;;2.03;;
53927;SDS011;39837;47.630;18.822;2023-06-24T03:55:29;2.53;;;2.33;;
53927;SDS011;39837;47.630;18.822;2023-06-24T03:58:13;4.47;;;3.05;;
53927;SDS011;39837;47.630;18.822;2023-06-24T04:00:58;2.17;;;2.00;;
53927;SDS011;39837;47.630;18.822;2023-06-24T04:03:43;1.73;;;1.73;;
53927;SDS011;39837;47.630;18.822;2023-06-24T04:06:27;18.65;;;1.67;;
53927;SDS011;39837;47.630;18.822;2023-06-24T04:09:11;1.52;;;1.52;;
53927;SDS011;39837;47.630;18.822;2023-06-24T04:11:56;1.70;;;1.60;;
53927;SDS011;39837;47.630;18.822;2023-06-24T04:14:40;3.03;;;1.95;;
53927;SDS011;39837;47.630;18.822;2023-06-24T04:17:24;1.17;;;1.08;;
53927;SDS011;39837;47.630;18.822;2023-06-24T04:20:08;2.28;;;2.10;;
53927;SDS011;39837;47.630;18.822;2023-06-24T04:22:52;1.67;;;1.58;;
53927;SDS011;39837;47.630;18.822;2023-06-24T04:25:36;1.60;;;1.50;;
53927;SDS011;39837;47.630;18.822;2023-06-24T04:28:20;2.15;;;1.63;;
53927;SDS011;39837;47.630;18.822;2023-06-24T04:31:04;1.15;;;1.15;;
53927;SDS011;39837;47.630;18.822;2023-06-24T04:33:48;3.42;;;1.65;;
53927;SDS011;39837;47.630;18.822;2023-06-24T04:36:32;1.27;;;1.27;;
53927;SDS011;39837;47.630;18.822;2023-06-24T04:39:16;1.23;;;1.23;;
53927;SDS011;39837;47.630;18.822;2023-06-24T04:42:00;1.67;;;1.60;;
53927;SDS011;39837;47.630;18.822;2023-06-24T04:44:43;1.70;;;1.60;;
53927;SDS011;39837;47.630;18.822;2023-06-24T04:47:28;1.30;;;1.20;;
53927;SDS011;39837;47.630;18.822;2023-06-24T04:50:12;1.10;;;1.10;;
53927;SDS011;39837;47.630;18.822;2023-06-24T04:52:56;1.15;;;1.15;;
53927;SDS011;39837;47.630;18.822;2023-06-24T04:55:40;0.82;;;0.82;;
53927;SDS011;39837;47.630;18.822;2023-06-24T04:58:24;1.00;;;1.00;;
53927;SDS011;39837;47.630;18.822;2023-06-24T05:01:08;1.40;;;1.40;;
53927;SDS011;39837;47.630;18.822;2023-06-24T05:03:52;1.80;;;1.30;;
53927;SDS011;39837;47.630;18.822;2023-06-24T05:06:36;2.67;;;1.30;;
53927;SDS011;39837;47.630;18.822;2023-06-24T05:09:20;0.80;;;0.80;;
53927;SDS011;39837;47.630;18.822;2023-06-24T05:12:04;0.85;;;0.85;;
53927;SDS011;39837;47.630;18.822;2023-06-24T05:14:49;0.87;;;0.87;;
53927;SDS011;39837;47.630;18.822;2023-06-24T05:20:18;0.65;;;0.65;;
53927;SDS011;39837;47.630;18.822;2023-06-24T05:23:02;0.85;;;0.85;;
53927;SDS011;39837;47.630;18.822;2023-06-24T05:25:46;0.80;;;0.77;;
53927;SDS011;39837;47.630;18.822;2023-06-24T05:28:30;0.90;;;0.90;;
53927;SDS011;39837;47.630;18.822;2023-06-24T05:31:16;0.63;;;0.63;;
53927;SDS011;39837;47.630;18.822;2023-06-24T05:33:59;0.90;;;0.90;;
53927;SDS011;39837;47.630;18.822;2023-06-24T05:36:43;0.60;;;0.60;;
53927;SDS011;39837;47.630;18.822;2023-06-24T05:39:27;0.90;;;0.90;;
53927;SDS011;39837;47.630;18.822;2023-06-24T05:42:12;0.88;;;0.88;;
53927;SDS011;39837;47.630;18.822;2023-06-24T05:44:55;0.70;;;0.70;;
53927;SDS011;39837;47.630;18.822;2023-06-24T05:47:41;0.70;;;0.70;;
53927;SDS011;39837;47.630;18.822;2023-06-24T05:50:25;0.80;;;0.80;;
53927;SDS011;39837;47.630;18.822;2023-06-24T05:53:09;0.88;;;0.88;;
53927;SDS011;39837;47.630;18.822;2023-06-24T05:55:53;0.90;;;0.90;;
53927;SDS011;39837;47.630;18.822;2023-06-24T05:58:36;0.90;;;0.90;;
53927;SDS011;39837;47.630;18.822;2023-06-24T06:01:20;0.80;;;0.80;;
53927;SDS011;39837;47.630;18.822;2023-06-24T06:04:05;0.70;;;0.70;;
53927;SDS011;39837;47.630;18.822;2023-06-24T06:06:49;0.65;;;0.65;;
53927;SDS011;39837;47.630;18.822;2023-06-24T06:09:33;0.65;;;0.65;;
53927;SDS011;39837;47.630;18.822;2023-06-24T06:12:17;0.65;;;0.65;;
53927;SDS011;39837;47.630;18.822;2023-06-24T06:15:01;0.50;;;0.50;;
53927;SDS011;39837;47.630;18.822;2023-06-24T06:17:45;0.73;;;0.73;;
53927;SDS011;39837;47.630;18.822;2023-06-24T06:20:31;3.30;;;1.10;;
53927;SDS011;39837;47.630;18.822;2023-06-24T06:23:15;0.70;;;0.70;;
53927;SDS011;39837;47.630;18.822;2023-06-24T06:25:59;2.50;;;1.13;;
53927;SDS011;39837;47.630;18.822;2023-06-24T06:28:43;1.08;;;1.02;;
53927;SDS011;39837;47.630;18.822;2023-06-24T06:31:27;0.70;;;0.70;;
53927;SDS011;39837;47.630;18.822;2023-06-24T06:34:11;0.70;;;0.70;;
53927;SDS011;39837;47.630;18.822;2023-06-24T06:36:55;1.08;;;0.90;;
53927;SDS011;39837;47.630;18.822;2023-06-24T06:39:39;1.00;;;1.00;;
53927;SDS011;39837;47.630;18.822;2023-06-24T06:42:23;0.60;;;0.60;;
53927;SDS011;39837;47.630;18.822;2023-06-24T06:45:07;0.50;;;0.50;;
53927;SDS011;39837;47.630;18.822;2023-06-24T06:47:51;1.02;;;1.02;;
53927;SDS011;39837;47.630;18.822;2023-06-24T06:50:35;0.50;;;0.50;;
53927;SDS011;39837;47.630;18.822;2023-06-24T06:53:19;0.77;;;0.77;;
53927;SDS011;39837;47.630;18.822;2023-06-24T06:56:03;0.80;;;0.80;;
53927;SDS011;39837;47.630;18.822;2023-06-24T06:58:48;0.70;;;0.70;;
53927;SDS011;39837;47.630;18.822;2023-06-24T07:01:31;0.70;;;0.70;;
53927;SDS011;39837;47.630;18.822;2023-06-24T07:04:15;0.80;;;0.60;;
53927;SDS011;39837;47.630;18.822;2023-06-24T07:06:59;0.60;;;0.60;;
53927;SDS011;39837;47.630;18.822;2023-06-24T07:09:43;0.30;;;0.30;;
53927;SDS011;39837;47.630;18.822;2023-06-24T07:12:27;1.17;;;0.75;;
53927;SDS011;39837;47.630;18.822;2023-06-24T07:15:12;0.70;;;0.70;;
53927;SDS011;39837;47.630;18.822;2023-06-24T07:17:56;0.60;;;0.60;;
53927;SDS011;39837;47.630;18.822;2023-06-24T07:20:39;0.77;;;0.55;;
53927;SDS011;39837;47.630;18.822;2023-06-24T07:23:23;0.52;;;0.52;;
53927;SDS011;39837;47.630;18.822;2023-06-24T07:26:07;0.50;;;0.50;;
53927;SDS011;39837;47.630;18.822;2023-06-24T07:28:51;0.63;;;0.63;;
53927;SDS011;39837;47.630;18.822;2023-06-24T07:31:36;0.60;;;0.60;;
53927;SDS011;39837;47.630;18.822;2023-06-24T07:34:21;0.85;;;0.85;;
53927;SDS011;39837;47.630;18.822;2023-06-24T07:37:04;0.75;;;0.75;;
53927;SDS011;39837;47.630;18.822;2023-06-24T07:39:48;0.45;;;0.45;;
53927;SDS011;39837;47.630;18.822;2023-06-24T07:42:32;0.57;;;0.57;;
53927;SDS011;39837;47.630;18.822;2023-06-24T07:45:16;1.75;;;0.70;;
53927;SDS011;39837;47.630;18.822;2023-06-24T07:48:00;0.70;;;0.70;;
53927;SDS011;39837;47.630;18.822;2023-06-24T07:50:44;0.60;;;0.60;;
53927;SDS011;39837;47.630;18.822;2023-06-24T07:53:28;0.45;;;0.45;;
53927;SDS011;39837;47.630;18.822;2023-06-24T07:56:12;0.50;;;0.50;;
53927;SDS011;39837;47.630;18.822;2023-06-24T07:58:56;0.80;;;0.80;;
53927;SDS011;39837;47.630;18.822;2023-06-24T08:01:40;0.50;;;0.50;;
53927;SDS011;39837;47.630;18.822;2023-06-24T08:04:24;0.60;;;0.60;;
53927;SDS011;39837;47.630;18.822;2023-06-24T08:07:08;1.08;;;1.05;;
53927;SDS011;39837;47.630;18.822;2023-06-24T08:09:52;0.70;;;0.70;;
53927;SDS011;39837;47.630;18.822;2023-06-24T08:12:36;0.82;;;0.82;;
53927;SDS011;39837;47.630;18.822;2023-06-24T08:15:21;0.80;;;0.80;;
53927;SDS011;39837;47.630;18.822;2023-06-24T08:18:05;0.50;;;0.50;;
53927;SDS011;39837;47.630;18.822;2023-06-24T08:20:49;0.38;;;0.38;;
53927;SDS011;39837;47.630;18.822;2023-06-24T08:23:34;0.50;;;0.50;;
53927;SDS011;39837;47.630;18.822;2023-06-24T08:29:05;1.85;;;1.25;;
53927;SDS011;39837;47.630;18.822;2023-06-24T08:34:34;0.60;;;0.60;;
53927;SDS011;39837;47.630;18.822;2023-06-24T08:37:18;0.60;;;0.60;;
53927;SDS011;39837;47.630;18.822;2023-06-24T08:40:02;0.30;;;0.30;;
53927;SDS011;39837;47.630;18.822;2023-06-24T08:42:48;0.73;;;0.73;;
53927;SDS011;39837;47.630;18.822;2023-06-24T08:45:32;0.47;;;0.47;;
53927;SDS011;39837;47.630;18.822;2023-06-24T08:48:16;0.50;;;0.50;;
53927;SDS011;39837;47.630;18.822;2023-06-24T08:51:01;0.68;;;0.68;;
53927;SDS011;39837;47.630;18.822;2023-06-24T08:53:46;0.40;;;0.40;;
53927;SDS011;39837;47.630;18.822;2023-06-24T08:56:31;0.43;;;0.43;;
53927;SDS011;39837;47.630;18.822;2023-06-24T08:59:15;0.50;;;0.50;;
53927;SDS011;39837;47.630;18.822;2023-06-24T09:02:02;0.55;;;0.55;;
53927;SDS011;39837;47.630;18.822;2023-06-24T09:04:47;0.60;;;0.60;;
53927;SDS011;39837;47.630;18.822;2023-06-24T09:07:31;0.70;;;0.70;;
53927;SDS011;39837;47.630;18.822;2023-06-24T09:10:37;0.70;;;0.63;;
53927;SDS011;39837;47.630;18.822;2023-06-24T09:13:20;0.77;;;0.77;;
53927;SDS011;39837;47.630;18.822;2023-06-24T09:16:13;0.50;;;0.50;;
53927;SDS011;39837;47.630;18.822;2023-06-24T09:18:58;0.70;;;0.70;;
53927;SDS011;39837;47.630;18.822;2023-06-24T09:21:44;0.70;;;0.70;;
53927;SDS011;39837;47.630;18.822;2023-06-24T09:24:33;0.50;;;0.50;;
53927;SDS011;39837;47.630;18.822;2023-06-24T09:27:17;0.80;;;0.80;;
53927;SDS011;39837;47.630;18.822;2023-06-24T09:30:16;0.70;;;0.70;;
53927;SDS011;39837;47.630;18.822;2023-06-24T09:33:03;0.75;;;0.75;;
53927;SDS011;39837;47.630;18.822;2023-06-24T09:35:47;0.75;;;0.75;;
53927;SDS011;39837;47.630;18.822;2023-06-24T09:38:36;1.67;;;0.77;;
53927;SDS011;39837;47.630;18.822;2023-06-24T09:41:20;0.95;;;0.88;;
53927;SDS011;39837;47.630;18.822;2023-06-24T09:44:07;0.73;;;0.73;;
53927;SDS011;39837;47.630;18.822;2023-06-24T09:46:52;0.77;;;0.77;;
53927;SDS011;39837;47.630;18.822;2023-06-24T09:49:36;0.77;;;0.77;;
53927;SDS011;39837;47.630;18.822;2023-06-24T09:52:20;0.90;;;0.90;;
53927;SDS011;39837;47.630;18.822;2023-06-24T09:55:06;0.90;;;0.90;;
53927;SDS011;39837;47.630;18.822;2023-06-24T09:57:51;0.77;;;0.77;;
53927;SDS011;39837;47.630;18.822;2023-06-24T10:00:36;0.40;;;0.40;;
53927;SDS011;39837;47.630;18.822;2023-06-24T10:03:20;1.10;;;1.10;;
53927;SDS011;39837;47.630;18.822;2023-06-24T10:06:06;0.77;;;0.77;;
53927;SDS011;39837;47.630;18.822;2023-06-24T10:08:50;1.40;;;1.30;;
53927;SDS011;39837;47.630;18.822;2023-06-24T10:11:34;0.70;;;0.70;;
53927;SDS011;39837;47.630;18.822;2023-06-24T10:14:19;1.60;;;1.50;;
53927;SDS011;39837;47.630;18.822;2023-06-24T10:17:03;0.73;;;0.73;;
53927;SDS011;39837;47.630;18.822;2023-06-24T10:19:47;1.10;;;1.10;;
53927;SDS011;39837;47.630;18.822;2023-06-24T10:22:31;0.90;;;0.90;;
53927;SDS011;39837;47.630;18.822;2023-06-24T10:25:16;0.80;;;0.80;;
53927;SDS011;39837;47.630;18.822;2023-06-24T10:28:00;0.70;;;0.70;;
53927;SDS011;39837;47.630;18.822;2023-06-24T10:30:53;1.00;;;1.00;;
53927;SDS011;39837;47.630;18.822;2023-06-24T10:33:38;5.05;;;1.92;;
53927;SDS011;39837;47.630;18.822;2023-06-24T10:36:31;0.75;;;0.75;;
53927;SDS011;39837;47.630;18.822;2023-06-24T10:39:34;1.25;;;1.20;;
53927;SDS011;39837;47.630;18.822;2023-06-24T10:47:52;1.52;;;1.42;;
53927;SDS011;39837;47.630;18.822;2023-06-24T10:50:37;1.03;;;1.03;;
53927;SDS011;39837;47.630;18.822;2023-06-24T10:53:21;1.03;;;1.03;;
53927;SDS011;39837;47.630;18.822;2023-06-24T10:56:06;0.50;;;0.50;;
53927;SDS011;39837;47.630;18.822;2023-06-24T10:58:56;0.80;;;0.80;;
53927;SDS011;39837;47.630;18.822;2023-06-24T11:01:53;1.10;;;1.10;;
53927;SDS011;39837;47.630;18.822;2023-06-24T11:04:47;0.70;;;0.70;;
53927;SDS011;39837;47.630;18.822;2023-06-24T11:07:38;0.70;;;0.70;;
53927;SDS011;39837;47.630;18.822;2023-06-24T11:10:22;1.20;;;1.20;;
53927;SDS011;39837;47.630;18.822;2023-06-24T11:13:08;0.75;;;0.75;;
53927;SDS011;39837;47.630;18.822;2023-06-24T11:15:52;0.60;;;0.60;;
53927;SDS011;39837;47.630;18.822;2023-06-24T11:18:43;0.70;;;0.70;;
53927;SDS011;39837;47.630;18.822;2023-06-24T11:21:29;0.70;;;0.70;;
53927;SDS011;39837;47.630;18.822;2023-06-24T11:24:14;0.82;;;0.82;;
53927;SDS011;39837;47.630;18.822;2023-06-24T11:26:58;1.00;;;1.00;;
53927;SDS011;39837;47.630;18.822;2023-06-24T11:29:43;1.40;;;1.40;;
53927;SDS011;39837;47.630;18.822;2023-06-24T11:32:37;1.30;;;1.30;;
53927;SDS011;39837;47.630;18.822;2023-06-24T11:35:24;0.93;;;0.93;;
53927;SDS011;39837;47.630;18.822;2023-06-24T11:38:08;0.82;;;0.82;;
53927;SDS011;39837;47.630;18.822;2023-06-24T11:40:53;0.80;;;0.80;;
53927;SDS011;39837;47.630;18.822;2023-06-24T11:43:44;0.60;;;0.60;;
53927;SDS011;39837;47.630;18.822;2023-06-24T11:46:30;0.70;;;0.70;;
53927;SDS011;39837;47.630;18.822;2023-06-24T11:49:20;1.38;;;1.15;;
53927;SDS011;39837;47.630;18.822;2023-06-24T11:52:05;1.10;;;1.10;;
53927;SDS011;39837;47.630;18.822;2023-06-24T11:54:51;3.03;;;1.23;;
53927;SDS011;39837;47.630;18.822;2023-06-24T11:57:54;1.17;;;1.17;;
53927;SDS011;39837;47.630;18.822;2023-06-24T12:00:40;0.63;;;0.63;;
53927;SDS011;39837;47.630;18.822;2023-06-24T12:03:30;4.47;;;1.05;;
53927;SDS011;39837;47.630;18.822;2023-06-24T12:06:16;0.70;;;0.70;;
53927;SDS011;39837;47.630;18.822;2023-06-24T12:09:00;0.90;;;0.90;;
53927;SDS011;39837;47.630;18.822;2023-06-24T12:11:44;3.15;;;2.28;;
53927;SDS011;39837;47.630;18.822;2023-06-24T12:14:28;0.65;;;0.65;;
53927;SDS011;39837;47.630;18.822;2023-06-24T12:17:13;4.85;;;2.00;;
53927;SDS011;39837;47.630;18.822;2023-06-24T12:19:57;1.20;;;1.20;;
53927;SDS011;39837;47.630;18.822;2023-06-24T12:22:41;1.52;;;1.50;;
53927;SDS011;39837;47.630;18.822;2023-06-24T12:25:25;1.10;;;1.10;;
53927;SDS011;39837;47.630;18.822;2023-06-24T12:28:09;0.90;;;0.90;;
53927;SDS011;39837;47.630;18.822;2023-06-24T12:30:53;0.60;;;0.60;;
53927;SDS011;39837;47.630;18.822;2023-06-24T12:33:37;1.13;;;1.13;;
53927;SDS011;39837;47.630;18.822;2023-06-24T12:36:21;1.73;;;1.63;;
53927;SDS011;39837;47.630;18.822;2023-06-24T12:39:06;0.90;;;0.73;;
53927;SDS011;39837;47.630;18.822;2023-06-24T12:41:50;1.52;;;1.20;;
53927;SDS011;39837;47.630;18.822;2023-06-24T12:44:34;0.90;;;0.90;;
53927;SDS011;39837;47.630;18.822;2023-06-24T12:47:19;0.82;;;0.82;;
53927;SDS011;39837;47.630;18.822;2023-06-24T12:50:04;1.10;;;1.10;;
53927;SDS011;39837;47.630;18.822;2023-06-24T12:52:50;1.13;;;1.08;;
53927;SDS011;39837;47.630;18.822;2023-06-24T12:55:35;0.98;;;0.98;;
53927;SDS011;39837;47.630;18.822;2023-06-24T12:58:22;1.00;;;1.00;;
53927;SDS011;39837;47.630;18.822;2023-06-24T13:01:06;11.70;;;1.17;;
53927;SDS011;39837;47.630;18.822;2023-06-24T13:03:50;1.23;;;1.15;;
53927;SDS011;39837;47.630;18.822;2023-06-24T13:06:36;1.25;;;1.25;;
53927;SDS011;39837;47.630;18.822;2023-06-24T13:09:21;1.40;;;1.30;;
53927;SDS011;39837;47.630;18.822;2023-06-24T13:12:06;1.35;;;1.30;;
53927;SDS011;39837;47.630;18.822;2023-06-24T13:14:52;1.15;;;1.15;;
53927;SDS011;39837;47.630;18.822;2023-06-24T13:17:36;1.02;;;1.02;;
53927;SDS011;39837;47.630;18.822;2023-06-24T13:20:19;1.23;;;1.23;;
53927;SDS011;39837;47.630;18.822;2023-06-24T13:23:03;1.17;;;1.10;;
53927;SDS011;39837;47.630;18.822;2023-06-24T13:25:47;1.67;;;1.58;;
53927;SDS011;39837;47.630;18.822;2023-06-24T13:28:31;1.45;;;1.35;;
53927;SDS011;39837;47.630;18.822;2023-06-24T13:31:15;1.30;;;1.30;;
53927;SDS011;39837;47.630;18.822;2023-06-24T13:33:59;0.95;;;0.95;;
53927;SDS011;39837;47.630;18.822;2023-06-24T13:36:43;1.20;;;1.20;;
53927;SDS011;39837;47.630;18.822;2023-06-24T13:39:27;1.08;;;1.08;;
53927;SDS011;39837;47.630;18.822;2023-06-24T13:42:11;1.42;;;1.42;;
53927;SDS011;39837;47.630;18.822;2023-06-24T13:44:56;1.60;;;1.60;;
53927;SDS011;39837;47.630;18.822;2023-06-24T13:47:40;1.48;;;1.45;;
53927;SDS011;39837;47.630;18.822;2023-06-24T13:50:23;0.90;;;0.90;;
53927;SDS011;39837;47.630;18.822;2023-06-24T13:53:07;1.40;;;1.40;;
53927;SDS011;39837;47.630;18.822;2023-06-24T13:55:51;2.22;;;1.50;;
53927;SDS011;39837;47.630;18.822;2023-06-24T13:58:35;1.00;;;1.00;;
53927;SDS011;39837;47.630;18.822;2023-06-24T14:01:20;1.48;;;1.38;;
53927;SDS011;39837;47.630;18.822;2023-06-24T14:07:16;1.48;;;1.48;;
53927;SDS011;39837;47.630;18.822;2023-06-24T14:10:00;1.02;;;1.02;;
53927;SDS011;39837;47.630;18.822;2023-06-24T14:12:44;1.35;;;1.35;;
53927;SDS011;39837;47.630;18.822;2023-06-24T14:15:28;1.15;;;1.15;;
53927;SDS011;39837;47.630;18.822;2023-06-24T14:18:12;1.55;;;1.55;;
53927;SDS011;39837;47.630;18.822;2023-06-24T14:20:56;1.85;;;1.75;;
53927;SDS011;39837;47.630;18.822;2023-06-24T14:23:40;1.50;;;1.50;;
53927;SDS011;39837;47.630;18.822;2023-06-24T14:26:25;1.17;;;1.17;;
53927;SDS011;39837;47.630;18.822;2023-06-24T14:29:08;1.13;;;1.13;;
53927;SDS011;39837;47.630;18.822;2023-06-24T14:31:52;1.60;;;1.50;;
53927;SDS011;39837;47.630;18.822;2023-06-24T14:34:36;1.35;;;1.35;;
53927;SDS011;39837;47.630;18.822;2023-06-24T14:37:21;1.80;;;1.13;;
53927;SDS011;39837;47.630;18.822;2023-06-24T14:40:05;1.27;;;1.27;;
53927;SDS011;39837;47.630;18.822;2023-06-24T14:42:50;1.10;;;1.10;;
53927;SDS011;39837;47.630;18.822;2023-06-24T15:25:03;1.10;;;1.10;;
53927;SDS011;39837;47.630;18.822;2023-06-24T15:27:48;1.20;;;1.20;;
53927;SDS011;39837;47.630;18.822;2023-06-24T15:30:32;0.95;;;0.95;;
53927;SDS011;39837;47.630;18.822;2023-06-24T15:33:16;1.52;;;1.42;;
53927;SDS011;39837;47.630;18.822;2023-06-24T15:36:00;1.92;;;1.35;;
53927;SDS011;39837;47.630;18.822;2023-06-24T15:38:44;1.65;;;1.55;;
53927;SDS011;39837;47.630;18.822;2023-06-24T15:41:28;1.75;;;1.33;;
53927;SDS011;39837;47.630;18.822;2023-06-24T15:44:12;1.02;;;1.02;;
53927;SDS011;39837;47.630;18.822;2023-06-24T15:46:56;1.40;;;1.35;;
53927;SDS011;39837;47.630;18.822;2023-06-24T15:49:41;1.67;;;1.67;;
53927;SDS011;39837;47.630;18.822;2023-06-24T15:52:25;1.40;;;1.40;;
53927;SDS011;39837;47.630;18.822;2023-06-24T15:55:09;1.98;;;1.88;;
53927;SDS011;39837;47.630;18.822;2023-06-24T15:57:53;1.40;;;1.40;;
53927;SDS011;39837;47.630;18.822;2023-06-24T16:00:37;1.75;;;1.65;;
53927;SDS011;39837;47.630;18.822;2023-06-24T16:03:21;3.00;;;1.60;;
53927;SDS011;39837;47.630;18.822;2023-06-24T16:06:05;2.92;;;2.10;;
53927;SDS011;39837;47.630;18.822;2023-06-24T16:08:49;1.88;;;1.70;;
53927;SDS011;39837;47.630;18.822;2023-06-24T16:11:33;2.13;;;2.03;;
53927;SDS011;39837;47.630;18.822;2023-06-24T16:14:18;2.38;;;1.70;;
53927;SDS011;39837;47.630;18.822;2023-06-24T16:17:02;1.80;;;1.70;;
53927;SDS011;39837;47.630;18.822;2023-06-24T16:19:47;1.48;;;1.48;;
53927;SDS011;39837;47.630;18.822;2023-06-24T16:22:31;1.77;;;1.67;;
53927;SDS011;39837;47.630;18.822;2023-06-24T16:25:15;1.50;;;1.50;;
53927;SDS011;39837;47.630;18.822;2023-06-24T16:27:59;1.45;;;1.45;;
53927;SDS011;39837;47.630;18.822;2023-06-24T16:30:43;1.45;;;1.40;;
53927;SDS011;39837;47.630;18.822;2023-06-24T16:33:27;1.38;;;1.27;;
53927;SDS011;39837;47.630;18.822;2023-06-24T16:36:11;1.90;;;1.80;;
53927;SDS011;39837;47.630;18.822;2023-06-24T16:38:55;1.67;;;1.58;;
53927;SDS011;39837;47.630;18.822;2023-06-24T16:41:39;2.33;;;2.03;;
53927;SDS011;39837;47.630;18.822;2023-06-24T16:44:23;2.05;;;1.95;;
53927;SDS011;39837;47.630;18.822;2023-06-24T16:47:10;2.10;;;2.00;;
53927;SDS011;39837;47.630;18.822;2023-06-24T16:49:54;2.60;;;1.65;;
53927;SDS011;39837;47.630;18.822;2023-06-24T16:52:39;1.65;;;1.63;;
53927;SDS011;39837;47.630;18.822;2023-06-24T16:55:23;1.55;;;1.50;;
53927;SDS011;39837;47.630;18.822;2023-06-24T16:58:06;3.15;;;2.15;;
53927;SDS011;39837;47.630;18.822;2023-06-24T17:00:50;1.65;;;1.65;;
53927;SDS011;39837;47.630;18.822;2023-06-24T17:03:34;1.73;;;1.63;;
53927;SDS011;39837;47.630;18.822;2023-06-24T17:06:19;3.55;;;2.65;;
53927;SDS011;39837;47.630;18.822;2023-06-24T17:09:03;1.80;;;1.70;;
53927;SDS011;39837;47.630;18.822;2023-06-24T17:11:47;1.67;;;1.58;;
53927;SDS011;39837;47.630;18.822;2023-06-24T17:14:31;1.58;;;1.58;;
53927;SDS011;39837;47.630;18.822;2023-06-24T17:17:16;1.90;;;1.80;;
53927;SDS011;39837;47.630;18.822;2023-06-24T17:20:00;1.50;;;1.50;;
53927;SDS011;39837;47.630;18.822;2023-06-24T17:22:45;16.38;;;2.42;;
53927;SDS011;39837;47.630;18.822;2023-06-24T17:25:29;2.03;;;1.92;;
53927;SDS011;39837;47.630;18.822;2023-06-24T17:28:13;1.80;;;1.70;;
53927;SDS011;39837;47.630;18.822;2023-06-24T17:30:57;1.85;;;1.75;;